createdAt,value
2019-03-15T00:01:45.406Z,20.10
2019-03-15T00:04:13.339Z,21.97
2019-03-15T00:06:41.266Z,20.50
2019-03-15T00:09:09.116Z,21.80
2019-03-15T00:11:37.101Z,21.85
2019-03-15T00:14:05.854Z,17.85
2019-03-15T00:16:34.789Z,24.23
2019-03-15T00:19:02.662Z,19.52
2019-03-15T00:21:30.553Z,19.90
2019-03-15T00:23:59.632Z,16.90
2019-03-15T00:26:27.530Z,24.10
2019-03-15T00:28:55.451Z,19.05
2019-03-15T00:31:23.388Z,22.90
2019-03-15T00:33:51.269Z,23.05
2019-03-15T00:36:20.539Z,23.35
2019-03-15T00:38:48.434Z,19.40
2019-03-15T00:41:16.363Z,22.87
2019-03-15T00:43:49.065Z,21.50
2019-03-15T00:46:15.423Z,20.40
2019-03-15T00:48:43.677Z,21.17
2019-03-15T00:51:11.682Z,24.57
2019-03-15T00:53:39.638Z,23.52
2019-03-15T00:56:07.513Z,21.93
2019-03-15T00:58:37.755Z,22.17
2019-03-15T01:01:05.577Z,22.42
2019-03-15T01:03:33.519Z,22.73
2019-03-15T01:06:01.455Z,20.62
2019-03-15T01:08:29.434Z,18.37
2019-03-15T01:10:57.298Z,20.23
2019-03-15T01:13:25.229Z,24.32
2019-03-15T01:15:55.265Z,21.62
2019-03-15T01:18:23.246Z,18.73
2019-03-15T01:20:51.183Z,19.05
2019-03-15T01:23:19.033Z,18.77
2019-03-15T01:25:46.942Z,17.25
2019-03-15T01:28:14.854Z,19.80
2019-03-15T01:30:42.750Z,22.07
2019-03-15T01:33:11.567Z,18.85
2019-03-15T01:35:39.514Z,19.57
2019-03-15T01:38:07.499Z,18.52
2019-03-15T01:40:35.341Z,18.92
2019-03-15T01:43:05.725Z,22.37
2019-03-15T01:45:35.077Z,19.37
2019-03-15T01:48:03.165Z,17.95
2019-03-15T01:50:32.148Z,21.10
2019-03-15T01:53:00.034Z,20.90
2019-03-15T01:55:27.941Z,16.50
2019-03-15T01:57:55.802Z,15.00
2019-03-15T02:00:23.788Z,18.73
2019-03-15T02:02:53.809Z,21.48
2019-03-15T02:05:21.726Z,18.20
2019-03-15T02:07:49.731Z,19.23
2019-03-15T02:10:22.014Z,18.30
2019-03-15T02:12:50.217Z,20.55
2019-03-15T02:15:18.533Z,18.35
2019-03-15T02:17:46.629Z,19.20
2019-03-15T02:20:14.593Z,19.57
2019-03-15T02:22:42.501Z,17.35
2019-03-15T02:25:10.427Z,18.42
2019-03-15T02:27:38.335Z,20.05
2019-03-15T02:30:06.241Z,20.45
2019-03-15T02:32:34.102Z,20.65
2019-03-15T02:35:02.053Z,21.15
2019-03-15T02:37:31.843Z,17.00
2019-03-15T02:40:02.241Z,16.85
2019-03-15T02:42:30.077Z,18.75
2019-03-15T02:44:57.947Z,16.90
2019-03-15T02:47:26.986Z,21.97
2019-03-15T02:49:54.924Z,17.60
2019-03-15T02:52:23.007Z,20.20
2019-03-15T02:54:53.854Z,23.40
2019-03-15T02:57:22.159Z,15.53
2019-03-15T02:59:50.174Z,21.20
2019-03-15T03:02:19.180Z,23.80
2019-03-15T03:04:48.618Z,22.45
2019-03-15T03:07:17.954Z,16.45
2019-03-15T03:09:45.866Z,17.15
2019-03-15T03:12:13.992Z,19.20
2019-03-15T03:14:41.822Z,23.42
2019-03-15T03:17:09.856Z,17.15
2019-03-15T03:19:37.741Z,15.68
2019-03-15T03:22:06.029Z,21.25
2019-03-15T03:24:33.899Z,18.20
2019-03-15T03:27:01.899Z,21.90
2019-03-15T03:29:29.890Z,21.17
2019-03-15T03:31:59.074Z,18.20
2019-03-15T03:34:27.031Z,18.85
2019-03-15T03:36:58.202Z,17.00
2019-03-15T03:39:26.223Z,18.95
2019-03-15T03:41:56.861Z,16.37
2019-03-15T03:44:25.858Z,19.02
2019-03-15T03:46:53.802Z,20.35
2019-03-15T03:49:21.717Z,19.77
2019-03-15T03:51:49.641Z,18.92
2019-03-15T03:54:17.637Z,15.75
2019-03-15T03:56:45.495Z,19.48
2019-03-15T03:59:13.402Z,24.98
2019-03-15T04:01:43.321Z,19.10
2019-03-15T04:04:11.278Z,18.67
2019-03-15T04:06:39.167Z,16.37
2019-03-15T04:09:07.910Z,17.80
2019-03-15T04:11:36.274Z,23.83
2019-03-15T04:14:04.192Z,18.75
2019-03-15T04:16:32.651Z,19.12
2019-03-15T04:19:02.237Z,18.32
2019-03-15T04:21:31.300Z,16.80
2019-03-15T04:24:00.774Z,16.25
2019-03-15T04:26:28.658Z,23.18
2019-03-15T04:28:57.243Z,18.00
2019-03-15T04:31:25.733Z,20.08
2019-03-15T04:33:53.587Z,14.98
2019-03-15T04:36:23.885Z,18.30
2019-03-15T04:38:51.839Z,18.87
2019-03-15T04:41:19.691Z,19.48
2019-03-15T04:43:47.599Z,22.07
2019-03-15T04:46:15.495Z,14.98
2019-03-15T04:48:45.251Z,22.75
2019-03-15T04:51:14.329Z,17.52
2019-03-15T04:53:44.196Z,19.37
2019-03-15T04:56:12.134Z,14.90
2019-03-15T04:58:40.003Z,15.38
2019-03-15T05:01:14.122Z,22.48
2019-03-15T05:03:42.088Z,17.65
2019-03-15T05:06:10.125Z,19.48
2019-03-15T05:08:39.774Z,16.15
2019-03-15T05:11:09.641Z,17.37
2019-03-15T05:13:37.590Z,18.75
2019-03-15T05:16:05.853Z,19.87
2019-03-15T05:18:33.764Z,18.05
2019-03-15T05:21:01.755Z,18.42
2019-03-15T05:23:29.653Z,16.93
2019-03-15T05:25:57.568Z,21.17
2019-03-15T05:28:25.491Z,16.27
2019-03-15T05:30:53.484Z,18.85
2019-03-15T05:33:21.415Z,17.25
2019-03-15T05:35:49.418Z,19.15
2019-03-15T05:38:17.752Z,17.87
2019-03-15T05:40:53.302Z,20.35
2019-03-15T05:43:21.256Z,22.42
2019-03-15T05:45:49.204Z,22.75
2019-03-15T05:48:17.146Z,21.30
2019-03-15T05:50:47.103Z,21.23
2019-03-15T05:53:15.623Z,22.25
2019-03-15T05:55:43.594Z,24.72
2019-03-15T05:58:11.551Z,21.42
2019-03-15T06:00:39.400Z,26.20
2019-03-15T06:03:07.501Z,27.22
2019-03-15T06:05:39.799Z,22.73
2019-03-15T06:08:07.677Z,25.97
2019-03-15T06:10:35.585Z,20.57
2019-03-15T06:13:04.713Z,21.15
2019-03-15T06:15:32.670Z,22.40
2019-03-15T06:18:00.694Z,22.20
2019-03-15T06:20:28.715Z,24.10
2019-03-15T06:22:56.593Z,23.05
2019-03-15T06:25:24.508Z,22.00
2019-03-15T06:27:54.016Z,22.95
2019-03-15T06:30:22.275Z,23.30
2019-03-15T06:32:50.162Z,29.10
2019-03-15T06:35:18.086Z,24.87
2019-03-15T06:37:45.993Z,21.45
2019-03-15T06:40:14.197Z,22.30
2019-03-15T06:42:43.463Z,23.27
2019-03-15T06:45:11.587Z,23.95
2019-03-15T06:47:39.598Z,21.17
2019-03-15T06:50:08.737Z,26.68
2019-03-15T06:52:36.662Z,22.93
2019-03-15T06:55:05.437Z,23.65
2019-03-15T06:57:33.858Z,19.67
2019-03-15T07:00:01.753Z,23.30
2019-03-15T07:02:29.584Z,23.85
2019-03-15T07:04:57.461Z,18.37
2019-03-15T07:07:25.326Z,22.05
2019-03-15T07:09:53.231Z,20.90
2019-03-15T07:12:21.118Z,19.65
2019-03-15T07:14:49.003Z,19.20
2019-03-15T07:17:16.874Z,24.05
2019-03-15T07:19:44.797Z,20.90
2019-03-15T07:22:12.639Z,20.55
2019-03-15T07:24:43.548Z,25.77
2019-03-15T07:27:13.255Z,23.75
2019-03-15T07:29:40.560Z,22.27
2019-03-15T07:32:08.463Z,20.72
2019-03-15T07:34:36.306Z,21.62
2019-03-15T07:37:04.198Z,23.57
2019-03-15T07:39:32.196Z,26.33
2019-03-15T07:42:00.042Z,19.37
2019-03-15T07:44:27.850Z,21.57
2019-03-15T07:46:55.841Z,24.70
2019-03-15T07:49:23.700Z,21.30
2019-03-15T07:51:51.566Z,26.65
2019-03-15T07:54:19.419Z,23.35
2019-03-15T07:56:47.283Z,33.42
2019-03-15T07:59:15.160Z,25.45
2019-03-15T08:01:43.084Z,19.02
2019-03-15T08:04:17.144Z,24.50
2019-03-15T08:06:40.561Z,22.13
2019-03-15T08:09:08.419Z,24.60
2019-03-15T08:11:36.371Z,22.15
2019-03-15T08:14:04.295Z,24.02
2019-03-15T08:16:34.458Z,24.98
2019-03-15T08:19:04.849Z,20.35
2019-03-15T08:21:31.313Z,19.87
2019-03-15T08:23:59.213Z,21.42
2019-03-15T08:26:29.977Z,22.25
2019-03-15T08:28:56.659Z,24.72
2019-03-15T08:31:24.566Z,26.68
2019-03-15T08:33:52.464Z,29.35
2019-03-15T08:36:20.745Z,22.87
2019-03-15T08:38:48.581Z,23.47
2019-03-15T08:41:16.414Z,25.72
2019-03-15T08:43:46.050Z,24.50
2019-03-15T08:46:13.812Z,22.75
2019-03-15T08:48:41.685Z,23.67
2019-03-15T08:51:10.861Z,22.35
2019-03-15T08:53:38.936Z,22.55
2019-03-15T08:56:06.771Z,32.85
2019-03-15T08:58:37.785Z,21.68
2019-03-15T09:01:05.590Z,29.87
2019-03-15T09:03:34.429Z,21.17
2019-03-15T09:06:02.712Z,25.77
2019-03-15T09:08:30.549Z,24.05
2019-03-15T09:10:58.397Z,24.60
2019-03-15T09:13:26.247Z,23.83
2019-03-15T09:15:54.086Z,23.30
2019-03-15T09:18:22.030Z,22.00
2019-03-15T09:20:49.910Z,21.15
2019-03-15T09:23:17.731Z,23.57
2019-03-15T09:25:45.690Z,21.45
2019-03-15T09:28:13.564Z,20.70
2019-03-15T09:30:41.481Z,22.25
2019-03-15T09:33:09.330Z,20.55
2019-03-15T09:35:37.191Z,22.45
2019-03-15T09:38:05.017Z,21.35
2019-03-15T09:40:32.869Z,21.35
2019-03-15T09:43:00.705Z,24.90
2019-03-15T09:45:28.575Z,19.80
2019-03-15T09:47:56.451Z,25.02
2019-03-15T09:50:35.852Z,19.32
2019-03-15T09:52:54.074Z,20.55
2019-03-15T09:55:32.198Z,19.98
2019-03-15T09:57:51.562Z,22.20
2019-03-15T10:00:19.459Z,20.92
2019-03-15T10:02:47.426Z,22.80
2019-03-15T10:05:15.344Z,22.95
2019-03-15T10:07:45.046Z,20.92
2019-03-15T10:10:15.529Z,21.07
2019-03-15T10:12:43.326Z,21.27
2019-03-15T10:15:12.746Z,21.80
2019-03-15T10:17:40.858Z,23.90
2019-03-15T10:20:12.386Z,22.58
2019-03-15T10:22:39.512Z,22.50
2019-03-15T10:25:07.725Z,20.08
2019-03-15T10:27:38.727Z,21.02
2019-03-15T10:30:07.384Z,22.32
2019-03-15T10:32:35.267Z,21.33
2019-03-15T10:35:03.169Z,20.72
2019-03-15T10:37:32.106Z,20.95
2019-03-15T10:40:02.195Z,19.67
2019-03-15T10:42:31.681Z,20.88
2019-03-15T10:45:01.318Z,21.27
2019-03-15T10:47:29.348Z,19.37
2019-03-15T10:49:57.708Z,20.50
2019-03-15T10:52:27.232Z,21.15
2019-03-15T10:54:56.778Z,21.73
2019-03-15T10:57:24.705Z,21.55
2019-03-15T10:59:52.622Z,21.37
2019-03-15T11:02:22.494Z,21.87
2019-03-15T11:04:50.820Z,24.23
2019-03-15T11:07:18.670Z,24.60
2019-03-15T11:09:46.622Z,25.37
2019-03-15T11:12:16.523Z,26.62
2019-03-15T11:14:44.402Z,28.30
2019-03-15T11:17:12.269Z,25.65
2019-03-15T11:19:40.191Z,25.90
2019-03-15T11:22:08.145Z,26.40
2019-03-15T11:24:36.100Z,26.70
2019-03-15T11:27:03.936Z,27.05
2019-03-15T11:29:31.874Z,25.00
2019-03-15T11:31:59.779Z,26.15
2019-03-15T11:34:28.922Z,23.77
2019-03-15T11:36:58.469Z,23.83
2019-03-15T11:39:26.467Z,24.63
2019-03-15T11:41:54.390Z,22.98
2019-03-15T11:44:23.929Z,24.57
2019-03-15T11:46:52.046Z,23.32
2019-03-15T11:49:21.960Z,24.40
2019-03-15T11:51:51.066Z,23.73
2019-03-15T11:54:18.912Z,25.80
2019-03-15T11:56:46.789Z,23.57
2019-03-15T11:59:14.678Z,22.60
2019-03-15T12:01:42.673Z,21.20
2019-03-15T12:04:10.594Z,26.20
2019-03-15T12:06:38.503Z,22.42
2019-03-15T12:09:07.218Z,25.02
2019-03-15T12:11:35.229Z,24.30
2019-03-15T12:14:03.106Z,22.80
2019-03-15T12:16:31.019Z,23.27
2019-03-15T12:18:58.862Z,22.98
2019-03-15T12:21:26.833Z,20.55
2019-03-15T12:23:54.718Z,24.27
2019-03-15T12:26:22.609Z,20.02
2019-03-15T12:28:52.876Z,18.82
2019-03-15T12:31:20.856Z,22.13
2019-03-15T12:33:48.702Z,21.65
2019-03-15T12:36:16.581Z,25.77
2019-03-15T12:38:44.425Z,22.48
2019-03-15T12:41:12.267Z,23.35
2019-03-15T12:43:40.256Z,20.95
2019-03-15T12:46:08.085Z,23.77
2019-03-15T12:48:35.939Z,23.35
2019-03-15T12:51:03.783Z,21.05
2019-03-15T12:53:31.642Z,22.10
2019-03-15T12:55:59.499Z,21.17
2019-03-15T12:58:27.364Z,21.55
2019-03-15T13:00:55.280Z,18.10
2019-03-15T13:03:23.149Z,21.17
2019-03-15T13:05:50.994Z,23.45
2019-03-15T13:08:18.952Z,22.75
2019-03-15T13:10:46.822Z,22.70
2019-03-15T13:13:14.835Z,23.40
2019-03-15T13:15:42.971Z,21.40
2019-03-15T13:18:10.849Z,21.15
2019-03-15T13:20:38.850Z,23.00
2019-03-15T13:23:06.744Z,23.18
2019-03-15T13:25:34.562Z,22.65
2019-03-15T13:28:02.441Z,21.77
2019-03-15T13:30:30.308Z,21.02
2019-03-15T13:32:58.258Z,20.35
2019-03-15T13:35:26.184Z,21.82
2019-03-15T13:37:54.057Z,18.50
2019-03-15T13:40:21.942Z,19.92
2019-03-15T13:42:49.784Z,21.40
2019-03-15T13:45:17.665Z,18.95
2019-03-15T13:47:45.910Z,21.37
2019-03-15T13:50:13.790Z,25.10
2019-03-15T13:52:41.728Z,21.35
2019-03-15T13:55:09.596Z,23.95
2019-03-15T13:57:37.436Z,30.43
2019-03-15T14:00:05.559Z,23.25
2019-03-15T14:02:33.530Z,23.32
2019-03-15T14:05:01.410Z,24.02
2019-03-15T14:07:29.262Z,24.43
2019-03-15T14:09:57.192Z,21.48
2019-03-15T14:12:25.058Z,21.02
2019-03-15T14:14:52.930Z,28.32
2019-03-15T14:17:20.811Z,20.72
2019-03-15T14:19:48.685Z,25.20
2019-03-15T14:22:16.578Z,21.33
2019-03-15T14:24:44.417Z,20.30
2019-03-15T14:27:12.328Z,18.95
2019-03-15T14:29:40.173Z,23.73
2019-03-15T14:32:08.074Z,18.25
2019-03-15T14:34:35.931Z,18.17
2019-03-15T14:37:04.004Z,18.35
2019-03-15T14:39:31.901Z,18.15
2019-03-15T14:41:59.959Z,18.45
2019-03-15T14:44:28.084Z,18.15
2019-03-15T14:46:56.125Z,19.73
2019-03-15T14:49:24.011Z,17.67
2019-03-15T14:51:51.895Z,18.87
2019-03-15T14:54:19.809Z,18.70
2019-03-15T14:56:47.692Z,17.40
2019-03-15T14:59:15.563Z,16.97
2019-03-15T15:01:43.491Z,16.65
2019-03-15T15:04:11.344Z,18.45
2019-03-15T15:06:39.221Z,17.52
2019-03-15T15:09:07.147Z,17.65
2019-03-15T15:11:35.020Z,17.50
2019-03-15T15:14:02.922Z,16.62
2019-03-15T15:16:30.802Z,17.37
2019-03-15T15:18:58.722Z,21.00
2019-03-15T15:21:26.651Z,18.32
2019-03-15T15:23:54.547Z,16.30
2019-03-15T15:26:22.455Z,18.42
2019-03-15T15:28:50.332Z,17.65
2019-03-15T15:31:18.210Z,17.02
2019-03-15T15:33:46.082Z,17.15
2019-03-15T15:36:13.955Z,14.98
2019-03-15T15:38:41.957Z,17.40
2019-03-15T15:41:09.826Z,20.12
2019-03-15T15:43:37.716Z,19.15
2019-03-15T15:46:05.563Z,17.25
2019-03-15T15:48:33.768Z,18.55
2019-03-15T15:51:01.687Z,16.27
2019-03-15T15:53:29.607Z,16.42
2019-03-15T15:55:57.485Z,16.62
2019-03-15T15:58:25.418Z,19.75
2019-03-15T16:00:53.287Z,17.00
2019-03-15T16:03:21.181Z,21.07
2019-03-15T16:05:49.060Z,17.02
2019-03-15T16:08:16.977Z,20.80
2019-03-15T16:10:44.806Z,18.07
2019-03-15T16:13:17.278Z,22.52
2019-03-15T16:15:42.259Z,17.40
2019-03-15T16:18:10.143Z,17.87
2019-03-15T16:20:38.087Z,17.90
2019-03-15T16:23:05.967Z,19.50
2019-03-15T16:25:33.898Z,16.97
2019-03-15T16:28:01.810Z,17.62
2019-03-15T16:30:29.691Z,22.58
2019-03-15T16:32:57.736Z,16.35
2019-03-15T16:35:25.600Z,20.88
2019-03-15T16:37:53.466Z,19.65
2019-03-15T16:40:21.345Z,19.32
2019-03-15T16:42:49.316Z,17.50
2019-03-15T16:45:17.166Z,17.17
2019-03-15T16:47:45.029Z,20.35
2019-03-15T16:50:13.774Z,19.25
2019-03-15T16:52:41.667Z,18.40
2019-03-15T16:55:09.971Z,17.50
2019-03-15T16:57:37.834Z,19.40
2019-03-15T17:00:05.762Z,20.37
2019-03-15T17:02:33.712Z,19.57
2019-03-15T17:05:01.549Z,18.82
2019-03-15T17:07:29.426Z,18.15
2019-03-15T17:09:57.268Z,20.23
2019-03-15T17:12:25.141Z,19.05
2019-03-15T17:14:53.029Z,17.82
2019-03-15T17:17:20.934Z,18.50
2019-03-15T17:19:48.751Z,18.92
2019-03-15T17:22:16.698Z,19.62
2019-03-15T17:24:44.497Z,20.15
2019-03-15T17:27:15.167Z,18.90
2019-03-15T17:29:43.028Z,17.05
2019-03-15T17:32:10.912Z,19.42
2019-03-15T17:34:38.750Z,17.98
2019-03-15T17:37:07.136Z,18.10
2019-03-15T17:39:35.181Z,18.45
2019-03-15T17:42:03.558Z,18.35
2019-03-15T17:44:31.459Z,18.55
2019-03-15T17:46:59.331Z,20.40
2019-03-15T17:49:27.287Z,17.57
2019-03-15T17:51:55.162Z,22.05
2019-03-15T17:54:23.030Z,19.55
2019-03-15T17:56:50.900Z,20.12
2019-03-15T17:59:18.763Z,17.37
2019-03-15T18:01:46.632Z,15.95
2019-03-15T18:04:14.547Z,18.17
2019-03-15T18:06:42.411Z,18.05
2019-03-15T18:09:10.301Z,17.75
2019-03-15T18:11:38.152Z,17.35
2019-03-15T18:14:06.497Z,16.87
2019-03-15T18:16:34.354Z,16.00
2019-03-15T18:19:02.347Z,16.85
2019-03-15T18:21:30.237Z,16.62
2019-03-15T18:23:58.122Z,16.60
2019-03-15T18:26:26.029Z,15.88
2019-03-15T18:28:53.890Z,19.75
2019-03-15T18:31:21.770Z,18.75
2019-03-15T18:33:49.708Z,15.78
2019-03-15T18:36:17.570Z,17.42
2019-03-15T18:38:45.439Z,14.10
2019-03-15T18:41:13.378Z,17.35
2019-03-15T18:43:41.210Z,15.58
2019-03-15T18:46:09.544Z,15.60
2019-03-15T18:48:37.454Z,20.37
2019-03-15T18:51:05.343Z,14.35
2019-03-15T18:53:33.192Z,14.87
2019-03-15T18:56:01.203Z,19.17
2019-03-15T18:58:29.066Z,15.38
2019-03-15T19:00:56.967Z,15.75
2019-03-15T19:03:24.785Z,18.70
2019-03-15T19:05:52.684Z,15.05
2019-03-15T19:08:20.520Z,14.95
2019-03-15T19:10:48.422Z,15.93
2019-03-15T19:13:16.281Z,16.48
2019-03-15T19:15:44.182Z,19.27
2019-03-15T19:18:12.469Z,15.70
2019-03-15T19:20:40.433Z,17.55
2019-03-15T19:23:08.340Z,17.40
2019-03-15T19:25:36.276Z,15.43
2019-03-15T19:28:04.150Z,16.05
2019-03-15T19:30:32.041Z,18.00
2019-03-15T19:32:59.946Z,17.45
2019-03-15T19:35:27.828Z,18.65
2019-03-15T19:37:55.714Z,22.40
2019-03-15T19:40:23.583Z,21.62
2019-03-15T19:42:51.527Z,17.25
2019-03-15T19:45:19.353Z,19.05
2019-03-15T19:47:47.268Z,19.30
2019-03-15T19:50:15.183Z,15.70
2019-03-15T19:52:43.055Z,15.05
2019-03-15T19:55:11.356Z,18.82
2019-03-15T19:57:39.197Z,14.83
2019-03-15T20:00:08.801Z,14.35
2019-03-15T20:02:36.955Z,16.12
2019-03-15T20:05:05.265Z,15.75
2019-03-15T20:07:33.160Z,16.25
2019-03-15T20:10:01.212Z,15.13
2019-03-15T20:12:29.077Z,13.25
2019-03-15T20:14:56.978Z,14.63
2019-03-15T20:17:24.883Z,17.82
2019-03-15T20:19:52.852Z,17.23
2019-03-15T20:22:22.309Z,16.37
2019-03-15T20:24:50.300Z,15.53
2019-03-15T20:27:18.214Z,17.20
2019-03-15T20:29:46.137Z,15.60
2019-03-15T20:32:14.105Z,14.73
2019-03-15T20:34:42.036Z,15.78
2019-03-15T20:37:09.899Z,16.25
2019-03-15T20:39:37.791Z,16.85
2019-03-15T20:42:05.658Z,18.48
2019-03-15T20:44:33.544Z,18.27
2019-03-15T20:47:01.377Z,17.15
2019-03-15T20:49:29.348Z,16.67
2019-03-15T20:51:57.208Z,16.45
2019-03-15T20:54:25.070Z,14.38
2019-03-15T20:56:53.093Z,14.60
2019-03-15T20:59:20.954Z,16.23
2019-03-15T21:01:49.222Z,16.97
2019-03-15T21:04:17.189Z,18.92
2019-03-15T21:06:44.990Z,20.17
2019-03-15T21:09:12.845Z,19.62
2019-03-15T21:11:40.732Z,16.57
2019-03-15T21:14:08.564Z,16.65
2019-03-15T21:16:36.734Z,16.90
2019-03-15T21:19:04.647Z,18.80
2019-03-15T21:21:32.551Z,15.15
2019-03-15T21:24:00.436Z,18.00
2019-03-15T21:26:28.292Z,16.67
2019-03-15T21:28:56.183Z,15.88
2019-03-15T21:31:24.135Z,15.78
2019-03-15T21:33:52.044Z,19.50
2019-03-15T21:36:19.871Z,18.48
2019-03-15T21:38:48.660Z,17.02
2019-03-15T21:41:16.713Z,16.57
2019-03-15T21:43:44.614Z,15.40
2019-03-15T21:46:12.548Z,15.55
2019-03-15T21:48:40.451Z,15.03
2019-03-15T21:51:08.333Z,13.93
2019-03-15T21:53:36.185Z,16.45
2019-03-15T21:56:04.023Z,15.20
2019-03-15T21:58:31.870Z,19.67
2019-03-15T22:01:02.591Z,14.75
2019-03-15T22:03:29.323Z,15.10
2019-03-15T22:05:57.202Z,14.30
2019-03-15T22:08:25.270Z,15.78
2019-03-15T22:10:53.166Z,15.78
2019-03-15T22:13:21.072Z,15.00
2019-03-15T22:15:48.974Z,21.55
2019-03-15T22:18:16.854Z,15.70
2019-03-15T22:20:44.820Z,16.70
2019-03-15T22:23:12.728Z,15.68
2019-03-15T22:25:40.572Z,15.10
2019-03-15T22:28:08.437Z,20.32
2019-03-15T22:30:36.317Z,15.28
2019-03-15T22:33:04.175Z,14.65
2019-03-15T22:35:32.037Z,19.77
2019-03-15T22:37:59.889Z,19.40
2019-03-15T22:40:27.931Z,15.40
2019-03-15T22:42:55.745Z,18.02
2019-03-15T22:45:23.662Z,19.20
2019-03-15T22:47:51.730Z,17.73
2019-03-15T22:50:19.646Z,22.13
2019-03-15T22:52:47.461Z,15.68
2019-03-15T22:55:15.362Z,17.90
2019-03-15T22:57:43.221Z,16.73
2019-03-15T23:00:12.415Z,16.32
2019-03-15T23:02:40.509Z,16.90
2019-03-15T23:05:08.477Z,15.78
2019-03-15T23:07:36.332Z,15.80
2019-03-15T23:10:04.293Z,16.07
2019-03-15T23:12:32.141Z,17.23
2019-03-15T23:14:59.979Z,16.02
2019-03-15T23:17:27.863Z,14.60
2019-03-15T23:19:55.698Z,16.48
2019-03-15T23:22:23.598Z,14.18
2019-03-15T23:24:51.453Z,15.65
2019-03-15T23:27:19.374Z,20.62
2019-03-15T23:29:47.267Z,17.65
2019-03-15T23:32:15.179Z,16.37
2019-03-15T23:34:43.026Z,15.40
2019-03-15T23:37:10.899Z,14.85
2019-03-15T23:39:38.729Z,17.10
2019-03-15T23:42:06.676Z,15.53
2019-03-15T23:44:34.536Z,16.97
2019-03-15T23:47:02.477Z,14.38
2019-03-15T23:49:30.309Z,18.70
2019-03-15T23:51:58.136Z,14.80
2019-03-15T23:54:26.033Z,18.17
2019-03-15T23:56:53.866Z,15.20
2019-03-15T23:59:21.735Z,15.58
